sensor_id;sensor_type;location;lat;lon;timestamp;pressure;altitude;pressure_sealevel;temperature;humidity
43071;BME280;36278;47.952;21.714;2022-08-07T00:01:42;100459.25;;;20.66;74.75
43071;BME280;36278;47.952;21.714;2022-08-07T00:04:08;100470.06;;;20.58;75.18
43071;BME280;36278;47.952;21.714;2022-08-07T00:06:34;100462.84;;;20.58;74.54
43071;BME280;36278;47.952;21.714;2022-08-07T00:09:03;100456.16;;;20.54;74.64
43071;BME280;36278;47.952;21.714;2022-08-07T00:11:29;100461.50;;;20.62;74.39
43071;BME280;36278;47.952;21.714;2022-08-07T00:13:54;100457.13;;;20.61;73.95
43071;BME280;36278;47.952;21.714;2022-08-07T00:16:20;100454.00;;;20.41;74.81
43071;BME280;36278;47.952;21.714;2022-08-07T00:18:45;100457.38;;;20.43;74.83
43071;BME280;36278;47.952;21.714;2022-08-07T00:21:11;100451.84;;;20.45;75.33
43071;BME280;36278;47.952;21.714;2022-08-07T00:23:38;100462.88;;;20.50;74.67
43071;BME280;36278;47.952;21.714;2022-08-07T00:26:06;100465.28;;;20.45;74.93
43071;BME280;36278;47.952;21.714;2022-08-07T00:28:33;100458.19;;;20.44;74.86
43071;BME280;36278;47.952;21.714;2022-08-07T00:30:59;100453.53;;;20.38;74.94
43071;BME280;36278;47.952;21.714;2022-08-07T00:33:24;100458.41;;;20.34;75.20
43071;BME280;36278;47.952;21.714;2022-08-07T00:35:54;100465.94;;;20.39;74.76
43071;BME280;36278;47.952;21.714;2022-08-07T00:38:20;100464.13;;;20.31;75.02
43071;BME280;36278;47.952;21.714;2022-08-07T00:40:46;100474.56;;;20.26;75.28
43071;BME280;36278;47.952;21.714;2022-08-07T00:43:12;100461.50;;;20.23;75.05
43071;BME280;36278;47.952;21.714;2022-08-07T00:45:39;100473.13;;;20.15;75.35
43071;BME280;36278;47.952;21.714;2022-08-07T00:48:06;100475.28;;;20.20;75.34
43071;BME280;36278;47.952;21.714;2022-08-07T00:50:32;100467.66;;;20.32;74.46
43071;BME280;36278;47.952;21.714;2022-08-07T00:52:58;100472.72;;;20.27;74.55
43071;BME280;36278;47.952;21.714;2022-08-07T00:55:24;100469.91;;;20.20;74.88
43071;BME280;36278;47.952;21.714;2022-08-07T00:57:50;100480.16;;;20.16;74.84
43071;BME280;36278;47.952;21.714;2022-08-07T01:00:17;100481.88;;;20.09;75.08
43071;BME280;36278;47.952;21.714;2022-08-07T01:02:43;100476.81;;;20.14;74.57
43071;BME280;36278;47.952;21.714;2022-08-07T01:05:10;100487.06;;;20.11;74.61
43071;BME280;36278;47.952;21.714;2022-08-07T01:07:35;100478.50;;;20.15;74.19
43071;BME280;36278;47.952;21.714;2022-08-07T01:10:01;100480.19;;;20.08;74.29
43071;BME280;36278;47.952;21.714;2022-08-07T01:12:27;100489.47;;;20.06;74.46
43071;BME280;36278;47.952;21.714;2022-08-07T01:14:53;100487.41;;;20.16;73.63
43071;BME280;36278;47.952;21.714;2022-08-07T01:17:22;100488.28;;;20.08;73.70
43071;BME280;36278;47.952;21.714;2022-08-07T01:19:48;100485.44;;;20.02;73.82
43071;BME280;36278;47.952;21.714;2022-08-07T01:22:14;100487.81;;;19.97;74.08
43071;BME280;36278;47.952;21.714;2022-08-07T01:24:40;100480.09;;;19.85;74.01
43071;BME280;36278;47.952;21.714;2022-08-07T01:27:06;100479.41;;;19.92;73.70
43071;BME280;36278;47.952;21.714;2022-08-07T01:29:32;100480.94;;;19.86;73.71
43071;BME280;36278;47.952;21.714;2022-08-07T01:31:58;100479.09;;;19.78;73.73
43071;BME280;36278;47.952;21.714;2022-08-07T01:34:24;100488.88;;;19.79;73.66
43071;BME280;36278;47.952;21.714;2022-08-07T01:36:50;100485.00;;;19.82;73.58
43071;BME280;36278;47.952;21.714;2022-08-07T01:39:16;100482.63;;;19.79;73.37
43071;BME280;36278;47.952;21.714;2022-08-07T01:41:42;100481.94;;;19.85;72.42
43071;BME280;36278;47.952;21.714;2022-08-07T01:44:09;100475.91;;;19.83;73.02
43071;BME280;36278;47.952;21.714;2022-08-07T01:46:34;100490.03;;;19.77;72.73
43071;BME280;36278;47.952;21.714;2022-08-07T01:49:00;100484.16;;;19.81;72.29
43071;BME280;36278;47.952;21.714;2022-08-07T01:51:26;100487.88;;;19.72;72.19
43071;BME280;36278;47.952;21.714;2022-08-07T01:53:55;100490.88;;;19.77;71.93
43071;BME280;36278;47.952;21.714;2022-08-07T01:56:37;100492.56;;;19.70;72.15
43071;BME280;36278;47.952;21.714;2022-08-07T01:59:16;100494.59;;;19.60;72.67
43071;BME280;36278;47.952;21.714;2022-08-07T02:01:47;100486.53;;;19.52;72.69
43071;BME280;36278;47.952;21.714;2022-08-07T02:04:27;100491.44;;;19.56;72.43
43071;BME280;36278;47.952;21.714;2022-08-07T02:06:56;100488.03;;;19.63;71.97
43071;BME280;36278;47.952;21.714;2022-08-07T02:09:25;100488.41;;;19.59;71.69
43071;BME280;36278;47.952;21.714;2022-08-07T02:11:52;100490.88;;;19.45;72.16
43071;BME280;36278;47.952;21.714;2022-08-07T02:14:20;100496.63;;;19.42;71.74
43071;BME280;36278;47.952;21.714;2022-08-07T02:16:48;100489.56;;;19.41;71.67
43071;BME280;36278;47.952;21.714;2022-08-07T02:19:16;100492.06;;;19.42;71.51
43071;BME280;36278;47.952;21.714;2022-08-07T02:21:42;100498.78;;;19.46;71.31
43071;BME280;36278;47.952;21.714;2022-08-07T02:24:09;100502.66;;;19.36;71.67
43071;BME280;36278;47.952;21.714;2022-08-07T02:26:37;100498.63;;;19.31;71.13
43071;BME280;36278;47.952;21.714;2022-08-07T02:29:05;100520.44;;;19.37;71.04
43071;BME280;36278;47.952;21.714;2022-08-07T02:31:32;100512.38;;;19.37;71.05
43071;BME280;36278;47.952;21.714;2022-08-07T02:34:00;100519.97;;;19.25;71.15
43071;BME280;36278;47.952;21.714;2022-08-07T02:36:27;100513.75;;;19.24;71.12
43071;BME280;36278;47.952;21.714;2022-08-07T02:38:55;100510.72;;;19.27;70.30
43071;BME280;36278;47.952;21.714;2022-08-07T02:41:22;100514.59;;;19.33;70.35
43071;BME280;36278;47.952;21.714;2022-08-07T02:43:48;100517.28;;;19.25;70.15
43071;BME280;36278;47.952;21.714;2022-08-07T02:46:15;100514.75;;;19.23;70.36
43071;BME280;36278;47.952;21.714;2022-08-07T02:48:42;100509.22;;;19.17;69.80
43071;BME280;36278;47.952;21.714;2022-08-07T02:51:11;100517.59;;;19.22;70.03
43071;BME280;36278;47.952;21.714;2022-08-07T02:53:38;100509.69;;;19.28;69.19
43071;BME280;36278;47.952;21.714;2022-08-07T02:56:07;100508.19;;;19.26;69.32
43071;BME280;36278;47.952;21.714;2022-08-07T02:58:33;100509.03;;;19.26;68.99
43071;BME280;36278;47.952;21.714;2022-08-07T03:01:01;100503.84;;;19.41;68.33
43071;BME280;36278;47.952;21.714;2022-08-07T03:03:30;100499.31;;;19.33;68.27
43071;BME280;36278;47.952;21.714;2022-08-07T03:05:56;100506.84;;;19.38;67.91
43071;BME280;36278;47.952;21.714;2022-08-07T03:08:23;100516.75;;;19.29;67.95
43071;BME280;36278;47.952;21.714;2022-08-07T03:10:49;100514.59;;;19.25;68.09
43071;BME280;36278;47.952;21.714;2022-08-07T03:13:15;100519.78;;;19.26;68.10
43071;BME280;36278;47.952;21.714;2022-08-07T03:15:41;100513.41;;;19.19;68.43
43071;BME280;36278;47.952;21.714;2022-08-07T03:18:07;100519.59;;;19.12;68.34
43071;BME280;36278;47.952;21.714;2022-08-07T03:20:34;100523.97;;;19.13;68.20
43071;BME280;36278;47.952;21.714;2022-08-07T03:23:01;100519.13;;;19.24;68.35
43071;BME280;36278;47.952;21.714;2022-08-07T03:25:28;100523.31;;;19.27;67.60
43071;BME280;36278;47.952;21.714;2022-08-07T03:27:58;100520.28;;;19.22;67.76
43071;BME280;36278;47.952;21.714;2022-08-07T03:30:24;100520.44;;;19.12;67.36
43071;BME280;36278;47.952;21.714;2022-08-07T03:32:51;100525.81;;;19.20;67.38
43071;BME280;36278;47.952;21.714;2022-08-07T03:35:21;100527.50;;;19.21;67.14
43071;BME280;36278;47.952;21.714;2022-08-07T03:37:58;100532.72;;;19.23;67.32
43071;BME280;36278;47.952;21.714;2022-08-07T03:40:26;100541.94;;;19.20;67.05
43071;BME280;36278;47.952;21.714;2022-08-07T03:42:53;100545.44;;;19.21;67.38
43071;BME280;36278;47.952;21.714;2022-08-07T03:45:20;100547.81;;;19.24;66.65
43071;BME280;36278;47.952;21.714;2022-08-07T03:47:47;100531.00;;;19.22;66.39
43071;BME280;36278;47.952;21.714;2022-08-07T03:50:13;100546.63;;;19.18;66.19
43071;BME280;36278;47.952;21.714;2022-08-07T03:52:39;100542.06;;;19.02;66.45
43071;BME280;36278;47.952;21.714;2022-08-07T03:55:06;100547.97;;;18.98;66.53
43071;BME280;36278;47.952;21.714;2022-08-07T03:57:32;100553.34;;;19.06;66.85
43071;BME280;36278;47.952;21.714;2022-08-07T03:59:58;100549.47;;;19.09;66.54
43071;BME280;36278;47.952;21.714;2022-08-07T04:02:24;100551.50;;;19.15;66.15
43071;BME280;36278;47.952;21.714;2022-08-07T04:04:50;100550.50;;;19.16;65.94
43071;BME280;36278;47.952;21.714;2022-08-07T04:07:17;100552.84;;;19.19;65.74
43071;BME280;36278;47.952;21.714;2022-08-07T04:09:46;100558.06;;;19.28;65.34
43071;BME280;36278;47.952;21.714;2022-08-07T04:12:13;100558.41;;;19.25;65.43
43071;BME280;36278;47.952;21.714;2022-08-07T04:14:40;100548.97;;;19.21;65.17
43071;BME280;36278;47.952;21.714;2022-08-07T04:17:06;100559.38;;;19.08;65.69
43071;BME280;36278;47.952;21.714;2022-08-07T04:19:32;100550.16;;;19.11;65.66
43071;BME280;36278;47.952;21.714;2022-08-07T04:21:58;100576.00;;;19.12;65.42
43071;BME280;36278;47.952;21.714;2022-08-07T04:24:24;100557.72;;;19.23;64.94
43071;BME280;36278;47.952;21.714;2022-08-07T04:26:50;100567.75;;;19.05;65.21
43071;BME280;36278;47.952;21.714;2022-08-07T04:29:16;100577.66;;;19.13;65.47
43071;BME280;36278;47.952;21.714;2022-08-07T04:31:42;100570.44;;;19.05;65.67
43071;BME280;36278;47.952;21.714;2022-08-07T04:34:08;100576.63;;;19.05;65.41
43071;BME280;36278;47.952;21.714;2022-08-07T04:36:34;100586.09;;;19.18;65.16
43071;BME280;36278;47.952;21.714;2022-08-07T04:39:00;100584.41;;;19.17;64.40
43071;BME280;36278;47.952;21.714;2022-08-07T04:41:27;100568.47;;;19.23;64.40
43071;BME280;36278;47.952;21.714;2022-08-07T04:43:53;100588.13;;;19.32;64.49
43071;BME280;36278;47.952;21.714;2022-08-07T04:46:43;100577.69;;;19.29;64.01
43071;BME280;36278;47.952;21.714;2022-08-07T04:49:16;100582.41;;;19.35;63.95
43071;BME280;36278;47.952;21.714;2022-08-07T04:54:32;100587.97;;;19.42;63.19
43071;BME280;36278;47.952;21.714;2022-08-07T04:59:56;100591.00;;;19.55;62.73
43071;BME280;36278;47.952;21.714;2022-08-07T05:02:38;100592.53;;;19.57;62.64
43071;BME280;36278;47.952;21.714;2022-08-07T05:05:20;100594.66;;;19.54;62.60
43071;BME280;36278;47.952;21.714;2022-08-07T05:07:59;100599.41;;;19.68;62.28
43071;BME280;36278;47.952;21.714;2022-08-07T05:10:33;100594.88;;;19.69;62.35
43071;BME280;36278;47.952;21.714;2022-08-07T05:13:06;100606.63;;;19.84;62.48
43071;BME280;36278;47.952;21.714;2022-08-07T05:15:36;100593.72;;;19.87;62.05
43071;BME280;36278;47.952;21.714;2022-08-07T05:18:26;100600.88;;;20.03;61.41
43071;BME280;36278;47.952;21.714;2022-08-07T05:20:56;100605.59;;;20.01;61.28
43071;BME280;36278;47.952;21.714;2022-08-07T05:23:32;100611.84;;;19.94;61.18
43071;BME280;36278;47.952;21.714;2022-08-07T05:26:02;100605.28;;;20.04;61.37
43071;BME280;36278;47.952;21.714;2022-08-07T05:28:31;100608.78;;;20.21;61.01
43071;BME280;36278;47.952;21.714;2022-08-07T05:30:58;100607.56;;;20.40;61.27
43071;BME280;36278;47.952;21.714;2022-08-07T05:33:26;100601.69;;;20.45;60.70
43071;BME280;36278;47.952;21.714;2022-08-07T05:35:53;100609.06;;;20.51;60.05
43071;BME280;36278;47.952;21.714;2022-08-07T05:38:20;100611.44;;;20.46;61.07
43071;BME280;36278;47.952;21.714;2022-08-07T05:40:46;100613.41;;;20.52;60.34
43071;BME280;36278;47.952;21.714;2022-08-07T05:43:13;100618.94;;;20.58;59.78
43071;BME280;36278;47.952;21.714;2022-08-07T05:45:40;100619.28;;;20.63;60.15
43071;BME280;36278;47.952;21.714;2022-08-07T05:48:07;100610.88;;;20.58;59.90
43071;BME280;36278;47.952;21.714;2022-08-07T05:50:32;100625.56;;;20.48;60.14
43071;BME280;36278;47.952;21.714;2022-08-07T05:53:00;100626.03;;;20.43;60.31
43071;BME280;36278;47.952;21.714;2022-08-07T05:55:26;100625.34;;;20.57;60.21
43071;BME280;36278;47.952;21.714;2022-08-07T05:57:53;100615.94;;;20.61;59.99
43071;BME280;36278;47.952;21.714;2022-08-07T06:00:18;100626.19;;;20.58;59.95
43071;BME280;36278;47.952;21.714;2022-08-07T06:02:48;100627.66;;;20.68;60.12
43071;BME280;36278;47.952;21.714;2022-08-07T06:05:15;100632.34;;;20.75;60.68
43071;BME280;36278;47.952;21.714;2022-08-07T06:07:41;100621.91;;;20.80;59.25
43071;BME280;36278;47.952;21.714;2022-08-07T06:10:09;100637.56;;;20.76;59.84
43071;BME280;36278;47.952;21.714;2022-08-07T06:12:35;100628.69;;;20.67;59.80
43071;BME280;36278;47.952;21.714;2022-08-07T06:15:01;100632.41;;;20.58;60.86
43071;BME280;36278;47.952;21.714;2022-08-07T06:17:27;100626.56;;;20.47;60.09
43071;BME280;36278;47.952;21.714;2022-08-07T06:19:53;100635.97;;;20.51;61.11
43071;BME280;36278;47.952;21.714;2022-08-07T06:22:20;100639.34;;;20.36;61.25
43071;BME280;36278;47.952;21.714;2022-08-07T06:24:46;100639.19;;;20.30;61.68
43071;BME280;36278;47.952;21.714;2022-08-07T06:27:21;100653.69;;;20.21;62.18
43071;BME280;36278;47.952;21.714;2022-08-07T06:29:47;100656.00;;;20.32;63.29
43071;BME280;36278;47.952;21.714;2022-08-07T06:32:12;100656.00;;;20.32;62.68
43071;BME280;36278;47.952;21.714;2022-08-07T06:34:38;100657.88;;;20.15;62.87
43071;BME280;36278;47.952;21.714;2022-08-07T06:37:03;100660.03;;;20.20;64.58
43071;BME280;36278;47.952;21.714;2022-08-07T06:39:28;100654.00;;;20.09;64.81
43071;BME280;36278;47.952;21.714;2022-08-07T06:42:06;100652.97;;;20.19;64.15
43071;BME280;36278;47.952;21.714;2022-08-07T06:44:33;100652.50;;;20.15;64.17
43071;BME280;36278;47.952;21.714;2022-08-07T06:47:00;100652.31;;;20.16;64.17
43071;BME280;36278;47.952;21.714;2022-08-07T06:49:26;100659.06;;;20.21;63.99
43071;BME280;36278;47.952;21.714;2022-08-07T06:51:52;100653.97;;;20.42;63.05
43071;BME280;36278;47.952;21.714;2022-08-07T06:54:19;100654.50;;;20.46;62.57
43071;BME280;36278;47.952;21.714;2022-08-07T06:56:45;100654.59;;;20.60;61.71
43071;BME280;36278;47.952;21.714;2022-08-07T06:59:20;100650.72;;;20.71;61.38
43071;BME280;36278;47.952;21.714;2022-08-07T07:01:47;100646.81;;;20.82;60.55
43071;BME280;36278;47.952;21.714;2022-08-07T07:04:14;100651.84;;;20.77;60.69
43071;BME280;36278;47.952;21.714;2022-08-07T07:06:39;100648.31;;;20.76;61.17
43071;BME280;36278;47.952;21.714;2022-08-07T07:09:21;100645.94;;;20.89;60.60
43071;BME280;36278;47.952;21.714;2022-08-07T07:14:36;100625.41;;;21.27;59.67
43071;BME280;36278;47.952;21.714;2022-08-07T07:17:08;100620.31;;;21.24;58.87
43071;BME280;36278;47.952;21.714;2022-08-07T07:19:42;100631.91;;;21.33;59.25
43071;BME280;36278;47.952;21.714;2022-08-07T07:22:10;100620.56;;;21.46;58.81
43071;BME280;36278;47.952;21.714;2022-08-07T07:24:37;100627.75;;;21.53;58.15
43071;BME280;36278;47.952;21.714;2022-08-07T07:27:05;100618.75;;;21.61;58.16
43071;BME280;36278;47.952;21.714;2022-08-07T07:29:35;100623.44;;;21.67;58.16
43071;BME280;36278;47.952;21.714;2022-08-07T07:32:05;100618.88;;;21.68;57.99
43071;BME280;36278;47.952;21.714;2022-08-07T07:34:33;100603.59;;;21.83;57.39
43071;BME280;36278;47.952;21.714;2022-08-07T07:37:02;100614.22;;;21.99;57.73
43071;BME280;36278;47.952;21.714;2022-08-07T07:39:29;100618.28;;;22.18;56.16
43071;BME280;36278;47.952;21.714;2022-08-07T07:41:56;100622.84;;;22.18;56.14
43071;BME280;36278;47.952;21.714;2022-08-07T07:44:24;100620.31;;;22.31;55.94
43071;BME280;36278;47.952;21.714;2022-08-07T07:46:53;100628.44;;;22.46;55.59
43071;BME280;36278;47.952;21.714;2022-08-07T07:49:21;100634.31;;;22.34;55.44
43071;BME280;36278;47.952;21.714;2022-08-07T07:51:47;100619.22;;;22.40;55.70
43071;BME280;36278;47.952;21.714;2022-08-07T07:54:13;100631.13;;;22.46;55.89
43071;BME280;36278;47.952;21.714;2022-08-07T07:56:40;100626.66;;;22.53;55.24
43071;BME280;36278;47.952;21.714;2022-08-07T07:59:08;100626.84;;;22.66;56.42
43071;BME280;36278;47.952;21.714;2022-08-07T08:01:37;100619.31;;;22.91;54.60
43071;BME280;36278;47.952;21.714;2022-08-07T08:04:06;100627.72;;;23.17;54.05
43071;BME280;36278;47.952;21.714;2022-08-07T08:06:33;100628.00;;;23.23;53.50
43071;BME280;36278;47.952;21.714;2022-08-07T08:09:02;100619.69;;;23.24;54.05
43071;BME280;36278;47.952;21.714;2022-08-07T08:11:28;100626.91;;;23.17;54.32
43071;BME280;36278;47.952;21.714;2022-08-07T08:13:54;100623.56;;;23.15;53.08
43071;BME280;36278;47.952;21.714;2022-08-07T08:16:23;100627.75;;;23.03;54.44
43071;BME280;36278;47.952;21.714;2022-08-07T08:18:53;100622.00;;;23.06;54.08
43071;BME280;36278;47.952;21.714;2022-08-07T08:21:19;100610.81;;;22.94;53.88
43071;BME280;36278;47.952;21.714;2022-08-07T08:24:05;100626.72;;;23.04;54.11
43071;BME280;36278;47.952;21.714;2022-08-07T08:26:52;100634.19;;;23.02;53.57
43071;BME280;36278;47.952;21.714;2022-08-07T08:29:57;100631.41;;;22.95;53.51
43071;BME280;36278;47.952;21.714;2022-08-07T08:32:28;100640.00;;;22.99;53.23
43071;BME280;36278;47.952;21.714;2022-08-07T08:34:57;100638.97;;;23.00;53.14
43071;BME280;36278;47.952;21.714;2022-08-07T08:37:26;100646.03;;;23.01;53.30
43071;BME280;36278;47.952;21.714;2022-08-07T08:39:53;100648.38;;;22.89;53.42
43071;BME280;36278;47.952;21.714;2022-08-07T08:42:26;100649.25;;;23.11;53.46
43071;BME280;36278;47.952;21.714;2022-08-07T08:45:11;100649.50;;;23.31;51.66
43071;BME280;36278;47.952;21.714;2022-08-07T08:50:30;100649.75;;;23.36;51.68
43071;BME280;36278;47.952;21.714;2022-08-07T08:53:32;100649.16;;;23.19;51.97
43071;BME280;36278;47.952;21.714;2022-08-07T08:56:10;100654.38;;;23.57;51.33
43071;BME280;36278;47.952;21.714;2022-08-07T08:58:48;100648.13;;;23.99;50.09
43071;BME280;36278;47.952;21.714;2022-08-07T09:01:35;100653.16;;;24.30;49.46
43071;BME280;36278;47.952;21.714;2022-08-07T09:04:24;100655.81;;;24.51;48.95
43071;BME280;36278;47.952;21.714;2022-08-07T09:09:50;100653.97;;;25.00;47.77
43071;BME280;36278;47.952;21.714;2022-08-07T09:18:10;100645.72;;;25.08;47.99
43071;BME280;36278;47.952;21.714;2022-08-07T09:20:47;100625.41;;;24.97;47.13
43071;BME280;36278;47.952;21.714;2022-08-07T09:23:21;100633.22;;;25.13;47.10
43071;BME280;36278;47.952;21.714;2022-08-07T09:26:20;100634.59;;;25.51;47.51
43071;BME280;36278;47.952;21.714;2022-08-07T09:28:53;100638.81;;;25.80;46.96
43071;BME280;36278;47.952;21.714;2022-08-07T09:34:19;100632.09;;;25.69;46.30
43071;BME280;36278;47.952;21.714;2022-08-07T09:36:54;100634.22;;;25.87;45.72
43071;BME280;36278;47.952;21.714;2022-08-07T09:39:34;100625.44;;;26.11;44.74
43071;BME280;36278;47.952;21.714;2022-08-07T09:42:19;100625.22;;;26.33;45.03
43071;BME280;36278;47.952;21.714;2022-08-07T09:45:11;100633.16;;;26.27;44.83
43071;BME280;36278;47.952;21.714;2022-08-07T09:47:50;100620.22;;;26.03;44.33
43071;BME280;36278;47.952;21.714;2022-08-07T09:50:38;100629.16;;;26.37;44.23
43071;BME280;36278;47.952;21.714;2022-08-07T09:53:10;100623.53;;;26.51;44.66
43071;BME280;36278;47.952;21.714;2022-08-07T09:56:08;100623.69;;;26.63;43.66
43071;BME280;36278;47.952;21.714;2022-08-07T10:23:58;100606.38;;;26.64;42.81
43071;BME280;36278;47.952;21.714;2022-08-07T10:26:45;100614.75;;;26.56;43.86
43071;BME280;36278;47.952;21.714;2022-08-07T10:35:29;100605.75;;;27.14;42.16
43071;BME280;36278;47.952;21.714;2022-08-07T10:40:55;100596.94;;;27.81;40.69
43071;BME280;36278;47.952;21.714;2022-08-07T10:43:29;100598.66;;;28.01;40.69
43071;BME280;36278;47.952;21.714;2022-08-07T10:45:59;100591.19;;;27.64;40.74
43071;BME280;36278;47.952;21.714;2022-08-07T10:51:39;100588.94;;;27.86;40.38
43071;BME280;36278;47.952;21.714;2022-08-07T10:54:45;100586.06;;;27.81;40.38
43071;BME280;36278;47.952;21.714;2022-08-07T11:02:21;100590.56;;;27.37;40.58
43071;BME280;36278;47.952;21.714;2022-08-07T11:05:21;100583.66;;;27.67;40.19
43071;BME280;36278;47.952;21.714;2022-08-07T11:10:56;100583.94;;;27.83;38.77
43071;BME280;36278;47.952;21.714;2022-08-07T11:13:46;100572.94;;;27.97;39.07
43071;BME280;36278;47.952;21.714;2022-08-07T11:19:04;100576.13;;;28.12;38.41
43071;BME280;36278;47.952;21.714;2022-08-07T11:24:52;100565.50;;;28.65;38.08
43071;BME280;36278;47.952;21.714;2022-08-07T11:27:21;100556.16;;;28.91;37.95
43071;BME280;36278;47.952;21.714;2022-08-07T11:29:56;100553.44;;;28.91;37.49
43071;BME280;36278;47.952;21.714;2022-08-07T11:34:59;100555.50;;;29.08;36.37
43071;BME280;36278;47.952;21.714;2022-08-07T11:37:36;100550.25;;;28.94;36.66
43071;BME280;36278;47.952;21.714;2022-08-07T11:49:24;100533.03;;;30.24;35.83
43071;BME280;36278;47.952;21.714;2022-08-07T11:57:26;100527.22;;;29.20;35.90
43071;BME280;36278;47.952;21.714;2022-08-07T11:59:58;100518.84;;;29.34;35.71
43071;BME280;36278;47.952;21.714;2022-08-07T12:08:42;100513.16;;;30.05;34.46
43071;BME280;36278;47.952;21.714;2022-08-07T12:11:16;100523.16;;;30.11;34.06
43071;BME280;36278;47.952;21.714;2022-08-07T12:13:55;100510.91;;;29.55;35.87
43071;BME280;36278;47.952;21.714;2022-08-07T12:16:34;100509.53;;;29.23;35.89
43071;BME280;36278;47.952;21.714;2022-08-07T12:27:54;100496.16;;;29.33;36.87
43071;BME280;36278;47.952;21.714;2022-08-07T12:30:23;100496.50;;;29.25;36.26
43071;BME280;36278;47.952;21.714;2022-08-07T12:32:59;100498.59;;;28.81;37.38
43071;BME280;36278;47.952;21.714;2022-08-07T12:35:27;100495.50;;;28.11;37.96
43071;BME280;36278;47.952;21.714;2022-08-07T12:37:53;100504.44;;;28.36;38.67
43071;BME280;36278;47.952;21.714;2022-08-07T12:40:24;100499.41;;;28.33;37.70
43071;BME280;36278;47.952;21.714;2022-08-07T12:42:51;100485.47;;;28.23;37.68
43071;BME280;36278;47.952;21.714;2022-08-07T12:46:02;100491.25;;;28.33;37.99
43071;BME280;36278;47.952;21.714;2022-08-07T12:48:30;100488.44;;;28.40;37.82
43071;BME280;36278;47.952;21.714;2022-08-07T12:51:15;100493.97;;;28.33;38.03
43071;BME280;36278;47.952;21.714;2022-08-07T12:53:44;100497.53;;;28.52;37.76
43071;BME280;36278;47.952;21.714;2022-08-07T12:56:30;100500.34;;;28.45;38.23
43071;BME280;36278;47.952;21.714;2022-08-07T12:58:58;100491.06;;;28.10;38.05
43071;BME280;36278;47.952;21.714;2022-08-07T13:09:16;100477.63;;;28.33;38.02
43071;BME280;36278;47.952;21.714;2022-08-07T13:12:12;100477.97;;;28.55;38.55
43071;BME280;36278;47.952;21.714;2022-08-07T13:17:50;100473.22;;;28.51;38.12
43071;BME280;36278;47.952;21.714;2022-08-07T13:20:44;100479.25;;;28.83;37.79
43071;BME280;36278;47.952;21.714;2022-08-07T13:23:18;100471.72;;;29.97;36.00
43071;BME280;36278;47.952;21.714;2022-08-07T13:26:00;100467.81;;;30.85;34.47
43071;BME280;36278;47.952;21.714;2022-08-07T13:28:37;100465.22;;;31.23;33.57
43071;BME280;36278;47.952;21.714;2022-08-07T13:31:10;100470.81;;;31.00;33.69
43071;BME280;36278;47.952;21.714;2022-08-07T13:33:57;100474.34;;;30.84;34.93
43071;BME280;36278;47.952;21.714;2022-08-07T13:36:39;100479.38;;;31.04;35.08
43071;BME280;36278;47.952;21.714;2022-08-07T13:39:09;100468.47;;;30.35;35.21
43071;BME280;36278;47.952;21.714;2022-08-07T13:41:47;100472.34;;;29.52;35.63
43071;BME280;36278;47.952;21.714;2022-08-07T13:44:21;100474.34;;;29.45;36.07
43071;BME280;36278;47.952;21.714;2022-08-07T13:46:49;100470.09;;;28.95;36.60
43071;BME280;36278;47.952;21.714;2022-08-07T13:49:19;100470.06;;;28.84;37.71
43071;BME280;36278;47.952;21.714;2022-08-07T13:51:46;100474.88;;;28.82;38.58
43071;BME280;36278;47.952;21.714;2022-08-07T13:54:13;100466.59;;;28.76;37.63
43071;BME280;36278;47.952;21.714;2022-08-07T13:56:41;100461.16;;;28.58;37.64
43071;BME280;36278;47.952;21.714;2022-08-07T13:59:11;100460.97;;;28.41;37.25
43071;BME280;36278;47.952;21.714;2022-08-07T14:01:50;100459.78;;;28.37;38.52
43071;BME280;36278;47.952;21.714;2022-08-07T14:04:17;100456.22;;;28.37;37.93
43071;BME280;36278;47.952;21.714;2022-08-07T14:06:47;100449.56;;;28.33;38.22
43071;BME280;36278;47.952;21.714;2022-08-07T14:09:21;100456.41;;;28.17;37.96
43071;BME280;36278;47.952;21.714;2022-08-07T14:15:35;100458.19;;;28.11;38.57
43071;BME280;36278;47.952;21.714;2022-08-07T14:18:18;100444.63;;;28.05;38.21
43071;BME280;36278;47.952;21.714;2022-08-07T14:20:46;100448.78;;;28.07;38.34
43071;BME280;36278;47.952;21.714;2022-08-07T14:23:20;100450.44;;;27.72;38.34
43071;BME280;36278;47.952;21.714;2022-08-07T14:25:56;100452.34;;;27.89;39.03
43071;BME280;36278;47.952;21.714;2022-08-07T14:28:23;100455.91;;;27.72;38.67
43071;BME280;36278;47.952;21.714;2022-08-07T14:30:51;100452.28;;;27.78;38.93
43071;BME280;36278;47.952;21.714;2022-08-07T14:33:17;100458.31;;;27.80;39.25
43071;BME280;36278;47.952;21.714;2022-08-07T14:35:44;100447.97;;;27.88;38.32
43071;BME280;36278;47.952;21.714;2022-08-07T14:38:10;100450.22;;;27.91;38.26
43071;BME280;36278;47.952;21.714;2022-08-07T14:40:38;100440.47;;;27.84;38.35
43071;BME280;36278;47.952;21.714;2022-08-07T14:43:07;100441.47;;;27.89;38.93
43071;BME280;36278;47.952;21.714;2022-08-07T14:45:41;100437.97;;;27.82;38.85
43071;BME280;36278;47.952;21.714;2022-08-07T14:48:08;100434.66;;;27.80;38.16
43071;BME280;36278;47.952;21.714;2022-08-07T14:50:40;100443.72;;;27.92;39.13
43071;BME280;36278;47.952;21.714;2022-08-07T14:53:07;100439.03;;;27.81;39.01
43071;BME280;36278;47.952;21.714;2022-08-07T14:55:33;100443.13;;;27.72;38.48
43071;BME280;36278;47.952;21.714;2022-08-07T14:58:00;100443.16;;;27.65;38.95
43071;BME280;36278;47.952;21.714;2022-08-07T15:00:30;100437.50;;;27.67;38.57